Argenta, Texas
Current Conditions -  °F | °C
As of 3:55 PM on Friday 24 Oct 2014 (Local Time) from KRBO Reporting Station
Heavy Rain Heavy Rain  
Wind Chill: 85°   Ceiling: Unl
Heat Index: 85°   Visibility: 4mi
Dew Point: 57°   Wind: 8mph
Humidity: 39%   Direction: 50°NE
Pressure: 30.08"   Gusts: NA
Location:  28.0654°N, 97.7489°W
Report Text: KRBO 242055Z AUTO 05007KT 4SM +RA CLR 30/14 A3008 RMK AO2 T02950141
Loading
Personal Weather Stations






























Interactive Weather Map
Tropical Storm Tracking
New forecast layout! Learn more

10-Day Weather Forecast

Advertisements
Track Severe Weather on mobile